Wednesday, January 17, 2018, 9:54 AM EST
Back to Local

KFIT, Fitchburg, Fitchburg Municipal Airport

Location: Leominster, MA, United States Lat: 42.552
Local Time: 9:54 AM EST (14:54 GMT) Lon: -71.756
Time Zone: US/Eastern Elev: 347 ft

Show me the last for .
Show Decoded

2018-01-17 09:22 METAR KFIT 171422Z AUTO 00000KT 3/4SM -SN BR OVC006 00/M01 A3028 RMK AO2 P0001
                 T00001006 =
2018-01-17 09:04 METAR KFIT 171404Z AUTO 35003KT 1 1/4SM -SN BR OVC006 00/M01 A3028 RMK AO2 P0000
                 T00001011 =
2018-01-17 08:52 METAR KFIT 171352Z AUTO 00000KT 2 1/2SM -SN BR OVC008 00/M02 A3028 RMK AO2 CIG
                 006V010 SLP259 P0001 T00001017 =
2018-01-17 08:37 METAR KFIT 171337Z AUTO 00000KT 2SM -SN BR OVC009 00/M01 A3028 RMK AO2 P0001
                 T00001011 =
2018-01-17 08:27 METAR KFIT 171327Z AUTO 00000KT 1 3/4SM -SN BR BKN009 OVC014 00/M01 A3028 RMK
                 AO2 P0001 T00001006 =
2018-01-17 08:15 METAR KFIT 171315Z AUTO 00000KT 1SM -SN BR BKN009 OVC013 00/M01 A3029 RMK AO2
                 P0001 T00001011 =
2018-01-17 08:06 METAR KFIT 171306Z AUTO 00000KT 1SM -SN BR OVC013 M01/M01 A3029 RMK AO2 P0001
                 T10061011 =
2018-01-17 07:59 METAR KFIT 171259Z AUTO 32003KT 1 1/4SM -SN BR SCT009 OVC015 00/M01 A3029 RMK
                 AO2 P0000 T00001011 =
2018-01-17 07:52 METAR KFIT 171252Z AUTO 00000KT 1SM -SN BR BKN009 OVC017 00/M01 A3029 RMK AO2
                 SLP262 P0002 T00001011 =
2018-01-17 07:38 METAR KFIT 171238Z AUTO 00000KT 1SM -SN BR FEW007 BKN010 OVC019 00/M01 A3029 RMK
                 AO2 P0002 T00001011 =
2018-01-17 07:15 METAR KFIT 171215Z AUTO 00000KT 1 1/4SM -SN BR FEW007 OVC015 M01/M01 A3030 RMK
                 AO2 P0001 T10061011 =
2018-01-17 07:02 METAR KFIT 171202Z AUTO 00000KT 1SM -SN BR FEW007 OVC013 00/M01 A3031 RMK AO2
                 P0001 T00001011 =
2018-01-17 06:52 METAR KFIT 171152Z AUTO 00000KT 1SM -SN BR OVC008 00/M01 A3031 RMK AO2 SLP268
                 P0002 60010 70012 T00001011 10000 21006 56006 =
2018-01-17 06:48 METAR KFIT 171148Z AUTO 00000KT 1SM -SN BR OVC008 00/M01 A3031 RMK AO2 P0002 =
2018-01-17 06:34 METAR KFIT 171134Z AUTO 00000KT 1 3/4SM -SN BR OVC008 00/M01 A3032 RMK AO2 P0002
                 T00001006 =
2018-01-17 06:20 METAR KFIT 171120Z AUTO 00000KT 2SM -SN BR OVC010 00/M01 A3032 RMK AO2 P0001
                 T00001011 =
2018-01-17 06:01 METAR KFIT 171101Z AUTO 00000KT 1 1/4SM -SN BR OVC010 00/M01 A3032 RMK AO2 P0001
                 T00001011 =
2018-01-17 05:52 METAR KFIT 171052Z AUTO 00000KT 1 1/2SM -SN BR OVC008 00/M01 A3032 RMK AO2
                 SLP272 P0001 T00001011 =
2018-01-17 05:26 METAR KFIT 171026Z AUTO 00000KT 1 1/2SM -SN BR BKN008 OVC019 00/M01 A3032 RMK
                 AO2 P0001 T00001006 =
2018-01-17 05:10 METAR KFIT 171010Z AUTO 00000KT 1 1/2SM -SN BR SCT008 SCT012 OVC019 M01/M01
                 A3033 RMK AO2 P0000 T10061011 =
2018-01-17 04:52 METAR KFIT 170952Z AUTO 00000KT 1 3/4SM -SN BR BKN010 OVC019 M01/M01 A3033 RMK
                 AO2 SLP275 P0002 T10061011 =
2018-01-17 04:39 METAR KFIT 170939Z AUTO 00000KT 2SM -SN BR SCT008 BKN013 OVC017 M01/M01 A3033
                 RMK AO2 P0002 T10061011 =
2018-01-17 04:27 METAR KFIT 170927Z AUTO 00000KT 1 1/2SM -SN BR BKN007 OVC017 00/M01 A3033 RMK
                 AO2 P0001 T00001011 =
2018-01-17 04:02 METAR KFIT 170902Z AUTO 00000KT 1 1/4SM -SN BR FEW007 OVC021 M01/M01 A3034 RMK
                 AO2 P0001 T10061011 =
2018-01-17 03:52 METAR KFIT 170852Z AUTO 00000KT 1 1/4SM -SN BR OVC023 M01/M01 A3034 RMK AO2
                 SLP279 P0001 60005 T10061011 58009 =
2018-01-17 03:10 METAR KFIT 170810Z AUTO 00000KT 1 1/2SM -SN BR BKN026 OVC032 M01/M01 A3035 RMK
                 AO2 P0000 T10061011 =
2018-01-17 02:52 METAR KFIT 170752Z AUTO 00000KT 1 1/2SM -SN BR SCT023 OVC031 M01/M01 A3036 RMK
                 AO2 SLP286 P0002 T10061011 =
2018-01-17 02:03 METAR KFIT 170703Z AUTO 00000KT 1 1/4SM -SN BR SCT008 SCT014 OVC019 M01/M01
                 A3036 RMK AO2 P0000 T10061011 =
2018-01-17 01:52 METAR KFIT 170652Z AUTO 00000KT 1 1/4SM -SN BR BKN008 OVC015 M01/M01 A3037 RMK
                 AO2 SLP288 P0002 T10061011 =
2018-01-17 01:16 METAR KFIT 170616Z AUTO 00000KT 1 1/2SM -SN BR BKN009 OVC022 M01/M01 A3037 RMK
                 AO2 P0001 T10061011 =
2018-01-17 00:52 METAR KFIT 170552Z AUTO 00000KT 1 1/2SM -SN BR FEW010 OVC020 M01/M01 A3037 RMK
                 AO2 SLP288 P0002 60002 T10061011 10000 21006 58016 =
2018-01-17 00:33 METAR KFIT 170533Z AUTO 00000KT 1 1/4SM -SN BR FEW013 OVC018 M01/M02 A3037 RMK
                 AO2 P0001 T10061017 =
2018-01-17 00:04 METAR KFIT 170504Z AUTO 00000KT 1 3/4SM -SN BR BKN013 OVC031 M01/M01 A3038 RMK
                 AO2 P0000 T10061011 =
2018-01-16 23:52 METAR KFIT 170452Z AUTO 00000KT 2SM -SN BR FEW013 OVC032 M01/M01 A3038 RMK AO2
                 SLP294 P0000 T10061011 400171067 =
2018-01-16 23:14 METAR KFIT 170414Z AUTO 00000KT 2 1/2SM -SN BR OVC032 M01/M02 A3039 RMK AO2
                 P0000 T10061022 =
2018-01-16 22:52 METAR KFIT 170352Z AUTO 00000KT 2SM -SN BR FEW014 OVC026 M01/M02 A3040 RMK AO2
                 SNB24 SLP300 P0000 T10061022 =
2018-01-16 22:39 METAR KFIT 170339Z AUTO 00000KT 2 1/2SM -SN BR SCT015 OVC026 00/M02 A3041 RMK
                 AO2 SNB24 P0000 T00001022 =
2018-01-16 21:52 METAR KFIT 170252Z AUTO 00000KT 10SM SCT016 BKN028 OVC035 00/M02 A3041 RMK AO2
                 SLP304 60000 T00001022 57009 =
2018-01-16 20:52 METAR KFIT 170152Z AUTO 00000KT 10SM SCT020 OVC029 00/M02 A3042 RMK AO2 SLP307
                 T00001022 =
2018-01-16 19:52 METAR KFIT 170052Z AUTO 00000KT 6SM BR SCT036 OVC048 00/M02 A3043 RMK AO2 SNE37
                 SLP310 P0000 T00001022 =
2018-01-16 18:52 METAR KFIT 162352Z AUTO 15004KT 3SM -SN BR OVC038 00/M02 A3044 RMK AO2 SNB32
                 SLP313 P0000 60000 T00001022 10017 20000 53005 =
2018-01-16 17:52 METAR KFIT 162252Z AUTO 17003KT 9SM OVC050 01/M03 A3043 RMK AO2 SLP309 T00061033
                 =
2018-01-16 17:17 METAR KFIT 162217Z AUTO 16004KT 9SM SCT024 SCT033 OVC043 01/M03 A3043 RMK AO2
                 T00061033 =
2018-01-16 17:00 METAR KFIT 162200Z AUTO 16005KT 10SM BKN024 BKN033 OVC047 01/M04 A3043 RMK AO2
                 T00061039 =
2018-01-16 16:52 METAR KFIT 162152Z AUTO 16005KT 10SM SCT024 BKN030 OVC047 01/M04 A3043 RMK AO2
                 SLP310 T00061039 =
2018-01-16 15:52 METAR KFIT 162052Z AUTO 22003KT 10SM SCT055 BKN070 OVC085 02/M04 A3043 RMK AO2
                 SLP308 T00171039 58004 =
2018-01-16 15:09 METAR KFIT 162009Z AUTO 22005KT 10SM SCT027 OVC042 02/M04 A3043 RMK AO2
                 T00171039 =
2018-01-16 14:52 METAR KFIT 161952Z AUTO 19008KT 10SM BKN028 OVC043 02/M04 A3043 RMK AO2 SLP311
                 T00171039 =
2018-01-16 14:32 METAR KFIT 161932Z AUTO 21005KT 10SM BKN028 OVC041 02/M04 A3043 RMK AO2
                 T00171044 =
2018-01-16 14:16 METAR KFIT 161916Z AUTO VRB05KT 10SM SCT029 OVC042 02/M05 A3043 RMK AO2
                 T00171050 =
2018-01-16 13:52 METAR KFIT 161852Z AUTO 21009KT 10SM BKN028 OVC047 01/M05 A3043 RMK AO2 SLP309
                 T00111050 =
2018-01-16 12:52 METAR KFIT 161752Z AUTO 10SM BKN029 OVC100 01/M06 A3044 RMK AO2 SLP312 T00061061
                 10006 21067 56030 =
2018-01-16 12:12 METAR KFIT 161712Z AUTO 16007KT 10SM BKN028 00/M07 A3045 RMK AO2 T00001072 =
2018-01-16 11:52 METAR KFIT 161652Z AUTO VRB03KT 10SM SCT028 00/M08 A3046 RMK AO2 SLP320
                 T00001078 =
2018-01-16 11:31 METAR KFIT 161631Z AUTO 17008KT 10SM FEW024 M01/M08 A3047 RMK AO2 PRESFR
                 T10061078 =
2018-01-16 10:52 METAR KFIT 161552Z AUTO 12004KT 10SM OVC024 M03/M09 A3050 RMK AO2 SLP335
                 T10281094 =

Support USWX by starting your Amazon purchase here.